Monroe Regional Airport
KMLU : now visible

Airfield :











YOU CAN JOIN US ON...

 
LOGIN :

Register | Disclaimer

   EN    FR    IT 

 









Legend :    VFR   Marginal VFR   IFR   Intensive IFR   Very Intensive IFR
Visi :
Ceiling :
>= 8 km
>= 3000ft
5 to 8 km
1000 to 3000 ft
1500m to 5 km
500 to 1000 ft
800 to 1500m
200 to 500 ft
< 800m
< 200 ft
Symbols :   Thunderstorms  Fog  Heavy snow  Heavy precipitations  Wind > 20 kt






- Airport Elevation : 79 ft
- IATA code : MLU


KMLU - Monroe Regional

CURRENT METAR :
  • 112053Z 24007G15KT 210V270 10SM SCT060 36/19 A2995 RMK AO2 SLP140 T03610194 56021

EXPIRED METARs :
  • 111953Z 23011G15KT 10SM SCT060 36/19 A2996 RMK AO2 SLP145 T03610189
  • 111853Z 25010KT 10SM CLR 36/18 A2999 RMK AO2 SLP152 T03610178
  • 111753Z 22007KT 180V250 10SM SCT042 34/21 A3001 RMK AO2 SLP161 T03440211 10350 20250 58010

TAF KMLU
Valid from the 11 at 18:00 until the 12 at 18:00 UTC


111720Z 1118/1218 22006KT P6SM SCT040
FM112100 19006KT P6SM SCT050
FM120300 16004KT P6SM SCT250
FM120900 33003KT 4SM BR BKN250
FM121200 23005KT P6SM BKN250
KZFW FIR / North America



MET'MAP, your aeronautical weather chart ! - Copyright ORBIFLY December 2007 - Disclaimer

ORBIFLY MET'MAP TEAM :

Programming & Development : Alexandra Zaïnal
Concept & original design : Baudouin d'Aumeries
Assistance for programming : Marc-Olivier Méhu
Technical & hardware support : Manuel Goepfert

Contact : metmap@orbifly.com




SOURCES & CREDITS :

   NOAA       Earth
Advisory